sensor_id;sensor_type;location;lat;lon;timestamp;temperature;humidity
66871;DHT22;53780;44.998;9.926;2023-06-26T00:02:41;23.34;63.32
66871;DHT22;53780;44.998;9.926;2023-06-26T00:05:45;23.33;63.55
66871;DHT22;53780;44.998;9.926;2023-06-26T00:08:54;23.28;63.47
66871;DHT22;53780;44.998;9.926;2023-06-26T00:11:58;23.27;63.55
66871;DHT22;53780;44.998;9.926;2023-06-26T00:15:03;23.26;63.85
66871;DHT22;53780;44.998;9.926;2023-06-26T00:18:08;23.19;63.65
66871;DHT22;53780;44.998;9.926;2023-06-26T00:21:12;23.10;64.03
66871;DHT22;53780;44.998;9.926;2023-06-26T00:24:16;23.10;64.26
66871;DHT22;53780;44.998;9.926;2023-06-26T00:27:20;23.03;64.26
66871;DHT22;53780;44.998;9.926;2023-06-26T00:30:24;22.96;64.58
66871;DHT22;53780;44.998;9.926;2023-06-26T00:33:28;22.91;64.50
66871;DHT22;53780;44.998;9.926;2023-06-26T00:36:32;22.91;64.82
66871;DHT22;53780;44.998;9.926;2023-06-26T00:39:36;22.79;64.96
66871;DHT22;53780;44.998;9.926;2023-06-26T00:42:40;22.73;64.81
66871;DHT22;53780;44.998;9.926;2023-06-26T00:45:44;22.73;64.80
66871;DHT22;53780;44.998;9.926;2023-06-26T00:48:48;22.76;65.58
66871;DHT22;53780;44.998;9.926;2023-06-26T00:51:53;22.69;65.12
66871;DHT22;53780;44.998;9.926;2023-06-26T00:54:57;22.65;65.77
66871;DHT22;53780;44.998;9.926;2023-06-26T00:58:01;22.52;66.32
66871;DHT22;53780;44.998;9.926;2023-06-26T01:01:06;22.36;67.09
66871;DHT22;53780;44.998;9.926;2023-06-26T01:04:12;22.22;67.39
66871;DHT22;53780;44.998;9.926;2023-06-26T01:07:21;22.07;67.69
66871;DHT22;53780;44.998;9.926;2023-06-26T01:10:26;22.04;67.74
66871;DHT22;53780;44.998;9.926;2023-06-26T01:13:33;22.09;67.46
66871;DHT22;53780;44.998;9.926;2023-06-26T01:16:38;22.13;67.57
66871;DHT22;53780;44.998;9.926;2023-06-26T01:19:43;22.21;67.29
66871;DHT22;53780;44.998;9.926;2023-06-26T01:26:19;22.38;67.49
66871;DHT22;53780;44.998;9.926;2023-06-26T01:29:24;22.24;67.39
66871;DHT22;53780;44.998;9.926;2023-06-26T01:32:30;22.24;67.39
66871;DHT22;53780;44.998;9.926;2023-06-26T01:35:34;22.21;67.70
66871;DHT22;53780;44.998;9.926;2023-06-26T01:38:43;22.16;67.16
66871;DHT22;53780;44.998;9.926;2023-06-26T01:41:47;22.07;67.01
66871;DHT22;53780;44.998;9.926;2023-06-26T01:44:51;22.03;67.43
66871;DHT22;53780;44.998;9.926;2023-06-26T01:47:58;22.04;67.64
66871;DHT22;53780;44.998;9.926;2023-06-26T01:51:03;22.03;67.61
66871;DHT22;53780;44.998;9.926;2023-06-26T01:54:14;22.04;67.82
66871;DHT22;53780;44.998;9.926;2023-06-26T01:57:20;22.03;67.66
66871;DHT22;53780;44.998;9.926;2023-06-26T02:00:26;21.94;67.83
66871;DHT22;53780;44.998;9.926;2023-06-26T02:03:30;21.86;67.62
66871;DHT22;53780;44.998;9.926;2023-06-26T02:06:34;21.82;67.62
66871;DHT22;53780;44.998;9.926;2023-06-26T02:09:38;21.72;67.51
66871;DHT22;53780;44.998;9.926;2023-06-26T02:12:42;21.65;67.01
66871;DHT22;53780;44.998;9.926;2023-06-26T02:15:46;21.52;67.52
66871;DHT22;53780;44.998;9.926;2023-06-26T02:18:51;21.54;67.94
66871;DHT22;53780;44.998;9.926;2023-06-26T02:21:55;21.54;68.26
66871;DHT22;53780;44.998;9.926;2023-06-26T02:25:01;21.42;68.43
66871;DHT22;53780;44.998;9.926;2023-06-26T02:28:05;21.21;68.80
66871;DHT22;53780;44.998;9.926;2023-06-26T02:31:09;21.01;69.97
66871;DHT22;53780;44.998;9.926;2023-06-26T02:34:13;20.97;70.51
66871;DHT22;53780;44.998;9.926;2023-06-26T02:37:17;20.93;70.72
66871;DHT22;53780;44.998;9.926;2023-06-26T02:40:21;21.06;70.52
66871;DHT22;53780;44.998;9.926;2023-06-26T02:43:25;21.08;70.43
66871;DHT22;53780;44.998;9.926;2023-06-26T02:46:29;21.21;70.82
66871;DHT22;53780;44.998;9.926;2023-06-26T02:49:34;21.24;70.25
66871;DHT22;53780;44.998;9.926;2023-06-26T02:52:38;21.26;69.91
66871;DHT22;53780;44.998;9.926;2023-06-26T02:55:41;21.21;70.61
66871;DHT22;53780;44.998;9.926;2023-06-26T02:58:45;21.28;70.26
66871;DHT22;53780;44.998;9.926;2023-06-26T03:01:49;21.30;69.89
66871;DHT22;53780;44.998;9.926;2023-06-26T03:04:52;21.31;69.90
66871;DHT22;53780;44.998;9.926;2023-06-26T03:07:56;21.28;70.22
66871;DHT22;53780;44.998;9.926;2023-06-26T03:11:00;21.24;69.96
66871;DHT22;53780;44.998;9.926;2023-06-26T03:14:04;21.18;69.84
66871;DHT22;53780;44.998;9.926;2023-06-26T03:17:07;21.18;69.93
66871;DHT22;53780;44.998;9.926;2023-06-26T03:20:13;21.21;70.06
66871;DHT22;53780;44.998;9.926;2023-06-26T03:23:25;21.21;70.05
66871;DHT22;53780;44.998;9.926;2023-06-26T03:26:28;21.12;70.03
66871;DHT22;53780;44.998;9.926;2023-06-26T03:29:34;21.12;70.03
66871;DHT22;53780;44.998;9.926;2023-06-26T03:32:39;21.03;69.54
66871;DHT22;53780;44.998;9.926;2023-06-26T03:35:43;21.03;69.83
66871;DHT22;53780;44.998;9.926;2023-06-26T03:38:50;21.07;69.93
66871;DHT22;53780;44.998;9.926;2023-06-26T03:41:56;21.04;70.20
66871;DHT22;53780;44.998;9.926;2023-06-26T03:45:04;21.04;70.22
66871;DHT22;53780;44.998;9.926;2023-06-26T03:48:10;21.04;70.37
66871;DHT22;53780;44.998;9.926;2023-06-26T03:51:14;21.07;70.56
66871;DHT22;53780;44.998;9.926;2023-06-26T03:54:18;21.01;70.04
66871;DHT22;53780;44.998;9.926;2023-06-26T03:57:21;20.99;70.13
66871;DHT22;53780;44.998;9.926;2023-06-26T04:00:26;20.93;70.54
66871;DHT22;53780;44.998;9.926;2023-06-26T04:03:31;20.99;70.39
66871;DHT22;53780;44.998;9.926;2023-06-26T04:06:35;20.97;70.50
66871;DHT22;53780;44.998;9.926;2023-06-26T04:09:39;20.94;70.96
66871;DHT22;53780;44.998;9.926;2023-06-26T04:12:44;20.99;70.80
66871;DHT22;53780;44.998;9.926;2023-06-26T04:15:48;20.99;70.47
66871;DHT22;53780;44.998;9.926;2023-06-26T04:18:52;20.94;71.27
66871;DHT22;53780;44.998;9.926;2023-06-26T04:21:56;20.94;71.27
66871;DHT22;53780;44.998;9.926;2023-06-26T04:25:02;21.07;70.95
66871;DHT22;53780;44.998;9.926;2023-06-26T04:28:07;21.27;70.47
66871;DHT22;53780;44.998;9.926;2023-06-26T04:31:11;21.45;69.66
66871;DHT22;53780;44.998;9.926;2023-06-26T04:34:14;21.73;69.14
66871;DHT22;53780;44.998;9.926;2023-06-26T04:37:19;22.06;68.37
66871;DHT22;53780;44.998;9.926;2023-06-26T04:40:23;22.36;67.37
66871;DHT22;53780;44.998;9.926;2023-06-26T04:43:27;22.65;66.58
66871;DHT22;53780;44.998;9.926;2023-06-26T04:46:31;23.02;66.29
66871;DHT22;53780;44.998;9.926;2023-06-26T04:49:34;23.39;65.86
66871;DHT22;53780;44.998;9.926;2023-06-26T04:52:38;23.65;65.54
66871;DHT22;53780;44.998;9.926;2023-06-26T04:55:42;23.92;64.45
66871;DHT22;53780;44.998;9.926;2023-06-26T04:58:46;24.22;63.52
66871;DHT22;53780;44.998;9.926;2023-06-26T05:01:49;24.49;62.60
66871;DHT22;53780;44.998;9.926;2023-06-26T05:04:53;24.74;62.33
66871;DHT22;53780;44.998;9.926;2023-06-26T05:07:57;25.07;61.68
66871;DHT22;53780;44.998;9.926;2023-06-26T05:11:01;25.43;60.65
66871;DHT22;53780;44.998;9.926;2023-06-26T05:14:05;25.77;59.32
66871;DHT22;53780;44.998;9.926;2023-06-26T05:17:11;26.02;58.81
66871;DHT22;53780;44.998;9.926;2023-06-26T05:20:14;26.29;57.78
66871;DHT22;53780;44.998;9.926;2023-06-26T05:23:19;26.63;57.19
66871;DHT22;53780;44.998;9.926;2023-06-26T05:26:23;26.91;56.14
66871;DHT22;53780;44.998;9.926;2023-06-26T05:29:27;27.24;56.09
66871;DHT22;53780;44.998;9.926;2023-06-26T05:32:34;27.59;55.18
66871;DHT22;53780;44.998;9.926;2023-06-26T05:35:39;27.83;54.92
66871;DHT22;53780;44.998;9.926;2023-06-26T05:38:43;28.06;53.65
66871;DHT22;53780;44.998;9.926;2023-06-26T05:41:47;28.28;53.44
66871;DHT22;53780;44.998;9.926;2023-06-26T05:44:51;28.61;52.43
66871;DHT22;53780;44.998;9.926;2023-06-26T05:47:55;28.70;52.38
66871;DHT22;53780;44.998;9.926;2023-06-26T05:50:59;28.89;51.23
66871;DHT22;53780;44.998;9.926;2023-06-26T05:54:03;29.00;51.68
66871;DHT22;53780;44.998;9.926;2023-06-26T05:57:07;29.17;50.98
66871;DHT22;53780;44.998;9.926;2023-06-26T06:00:11;29.31;50.60
66871;DHT22;53780;44.998;9.926;2023-06-26T06:03:19;29.41;51.24
66871;DHT22;53780;44.998;9.926;2023-06-26T06:06:23;29.54;50.23
66871;DHT22;53780;44.998;9.926;2023-06-26T06:09:26;29.69;49.49
66871;DHT22;53780;44.998;9.926;2023-06-26T06:12:30;29.89;49.34
66871;DHT22;53780;44.998;9.926;2023-06-26T06:15:34;30.16;48.25
66871;DHT22;53780;44.998;9.926;2023-06-26T06:18:38;30.34;47.68
66871;DHT22;53780;44.998;9.926;2023-06-26T06:21:41;30.41;47.34
66871;DHT22;53780;44.998;9.926;2023-06-26T06:24:48;30.55;47.28
66871;DHT22;53780;44.998;9.926;2023-06-26T06:27:51;30.75;46.22
66871;DHT22;53780;44.998;9.926;2023-06-26T06:30:55;30.93;46.81
66871;DHT22;53780;44.998;9.926;2023-06-26T06:33:59;31.05;46.62
66871;DHT22;53780;44.998;9.926;2023-06-26T06:37:03;31.22;46.70
66871;DHT22;53780;44.998;9.926;2023-06-26T06:40:09;31.33;45.12
66871;DHT22;53780;44.998;9.926;2023-06-26T06:43:13;31.51;45.00
66871;DHT22;53780;44.998;9.926;2023-06-26T06:46:17;31.71;45.24
66871;DHT22;53780;44.998;9.926;2023-06-26T06:49:20;31.80;44.82
66871;DHT22;53780;44.998;9.926;2023-06-26T06:52:24;31.95;44.61
66871;DHT22;53780;44.998;9.926;2023-06-26T06:55:28;32.05;44.51
66871;DHT22;53780;44.998;9.926;2023-06-26T06:58:32;32.11;44.61
66871;DHT22;53780;44.998;9.926;2023-06-26T07:01:39;32.23;44.24
66871;DHT22;53780;44.998;9.926;2023-06-26T07:04:42;32.33;43.87
66871;DHT22;53780;44.998;9.926;2023-06-26T07:07:46;32.37;43.30
66871;DHT22;53780;44.998;9.926;2023-06-26T07:10:50;32.53;43.32
66871;DHT22;53780;44.998;9.926;2023-06-26T07:13:55;32.67;42.68
66871;DHT22;53780;44.998;9.926;2023-06-26T07:16:58;32.71;42.71
66871;DHT22;53780;44.998;9.926;2023-06-26T07:20:02;32.77;42.97
66871;DHT22;53780;44.998;9.926;2023-06-26T07:23:11;32.92;42.36
66871;DHT22;53780;44.998;9.926;2023-06-26T07:26:15;33.00;42.45
66871;DHT22;53780;44.998;9.926;2023-06-26T07:29:19;33.01;42.86
66871;DHT22;53780;44.998;9.926;2023-06-26T07:32:23;33.14;41.95
66871;DHT22;53780;44.998;9.926;2023-06-26T07:35:27;33.22;42.07
66871;DHT22;53780;44.998;9.926;2023-06-26T07:38:30;33.42;41.10
66871;DHT22;53780;44.998;9.926;2023-06-26T07:41:34;33.51;41.54
66871;DHT22;53780;44.998;9.926;2023-06-26T07:44:38;33.65;40.94
66871;DHT22;53780;44.998;9.926;2023-06-26T07:47:42;33.72;40.44
66871;DHT22;53780;44.998;9.926;2023-06-26T07:50:46;33.77;40.66
66871;DHT22;53780;44.998;9.926;2023-06-26T07:53:49;33.80;40.02
66871;DHT22;53780;44.998;9.926;2023-06-26T07:56:58;33.90;40.50
66871;DHT22;53780;44.998;9.926;2023-06-26T08:00:03;33.89;40.61
66871;DHT22;53780;44.998;9.926;2023-06-26T08:03:17;33.97;39.82
66871;DHT22;53780;44.998;9.926;2023-06-26T08:06:21;34.03;40.49
66871;DHT22;53780;44.998;9.926;2023-06-26T08:09:27;34.21;40.19
66871;DHT22;53780;44.998;9.926;2023-06-26T08:12:31;34.28;39.81
66871;DHT22;53780;44.998;9.926;2023-06-26T08:15:35;34.28;39.45
66871;DHT22;53780;44.998;9.926;2023-06-26T08:18:39;34.28;39.92
66871;DHT22;53780;44.998;9.926;2023-06-26T08:21:46;34.31;39.59
66871;DHT22;53780;44.998;9.926;2023-06-26T08:24:50;34.47;38.36
66871;DHT22;53780;44.998;9.926;2023-06-26T08:27:53;34.51;39.50
66871;DHT22;53780;44.998;9.926;2023-06-26T08:30:59;34.54;39.44
66871;DHT22;53780;44.998;9.926;2023-06-26T08:34:04;34.56;39.21
66871;DHT22;53780;44.998;9.926;2023-06-26T08:37:08;34.58;39.00
66871;DHT22;53780;44.998;9.926;2023-06-26T08:40:17;34.63;38.71
66871;DHT22;53780;44.998;9.926;2023-06-26T08:43:21;34.71;38.38
66871;DHT22;53780;44.998;9.926;2023-06-26T08:46:25;34.82;38.49
66871;DHT22;53780;44.998;9.926;2023-06-26T08:50:01;34.90;38.27
66871;DHT22;53780;44.998;9.926;2023-06-26T08:56:44;34.96;38.44
66871;DHT22;53780;44.998;9.926;2023-06-26T08:59:50;34.98;38.38
66871;DHT22;53780;44.998;9.926;2023-06-26T09:02:55;35.02;37.90
66871;DHT22;53780;44.998;9.926;2023-06-26T09:05:59;35.13;36.87
66871;DHT22;53780;44.998;9.926;2023-06-26T09:09:04;35.24;36.49
66871;DHT22;53780;44.998;9.926;2023-06-26T09:12:09;35.24;36.92
66871;DHT22;53780;44.998;9.926;2023-06-26T09:15:14;35.29;36.07
66871;DHT22;53780;44.998;9.926;2023-06-26T09:18:18;35.16;37.07
66871;DHT22;53780;44.998;9.926;2023-06-26T09:21:25;34.96;37.58
66871;DHT22;53780;44.998;9.926;2023-06-26T09:24:30;35.09;35.48
66871;DHT22;53780;44.998;9.926;2023-06-26T09:27:35;35.07;35.45
66871;DHT22;53780;44.998;9.926;2023-06-26T09:30:39;35.03;37.22
66871;DHT22;53780;44.998;9.926;2023-06-26T09:33:43;34.93;37.30
66871;DHT22;53780;44.998;9.926;2023-06-26T09:36:53;34.93;36.38
66871;DHT22;53780;44.998;9.926;2023-06-26T09:39:57;34.88;37.24
66871;DHT22;53780;44.998;9.926;2023-06-26T09:43:09;35.26;33.45
66871;DHT22;53780;44.998;9.926;2023-06-26T09:46:31;35.29;35.71
66871;DHT22;53780;44.998;9.926;2023-06-26T09:49:35;35.17;36.82
66871;DHT22;53780;44.998;9.926;2023-06-26T09:52:40;35.00;34.83
66871;DHT22;53780;44.998;9.926;2023-06-26T09:55:44;35.14;33.73
66871;DHT22;53780;44.998;9.926;2023-06-26T09:58:49;35.10;34.03
66871;DHT22;53780;44.998;9.926;2023-06-26T10:01:59;35.10;33.65
66871;DHT22;53780;44.998;9.926;2023-06-26T10:05:03;34.85;36.62
66871;DHT22;53780;44.998;9.926;2023-06-26T10:08:07;34.72;34.40
66871;DHT22;53780;44.998;9.926;2023-06-26T10:11:19;34.73;35.38
66871;DHT22;53780;44.998;9.926;2023-06-26T10:14:34;34.76;36.54
66871;DHT22;53780;44.998;9.926;2023-06-26T10:17:42;34.56;37.25
66871;DHT22;53780;44.998;9.926;2023-06-26T10:20:48;34.49;37.29
66871;DHT22;53780;44.998;9.926;2023-06-26T10:23:52;34.55;37.29
66871;DHT22;53780;44.998;9.926;2023-06-26T10:27:04;34.58;37.54
66871;DHT22;53780;44.998;9.926;2023-06-26T10:30:14;34.59;37.55
66871;DHT22;53780;44.998;9.926;2023-06-26T10:33:20;34.63;37.29
66871;DHT22;53780;44.998;9.926;2023-06-26T10:36:30;34.78;34.81
66871;DHT22;53780;44.998;9.926;2023-06-26T10:39:48;34.82;35.64
66871;DHT22;53780;44.998;9.926;2023-06-26T10:43:06;34.78;36.14
66871;DHT22;53780;44.998;9.926;2023-06-26T10:46:14;34.79;36.25
66871;DHT22;53780;44.998;9.926;2023-06-26T10:49:27;34.73;33.79
66871;DHT22;53780;44.998;9.926;2023-06-26T10:52:36;34.63;36.75
66871;DHT22;53780;44.998;9.926;2023-06-26T10:55:48;34.52;37.18
66871;DHT22;53780;44.998;9.926;2023-06-26T10:58:52;34.48;35.90
66871;DHT22;53780;44.998;9.926;2023-06-26T11:01:58;34.47;36.40
66871;DHT22;53780;44.998;9.926;2023-06-26T11:05:05;34.47;36.37
66871;DHT22;53780;44.998;9.926;2023-06-26T11:08:09;34.42;34.87
66871;DHT22;53780;44.998;9.926;2023-06-26T11:11:15;34.31;37.44
66871;DHT22;53780;44.998;9.926;2023-06-26T11:14:21;34.27;35.88
66871;DHT22;53780;44.998;9.926;2023-06-26T11:17:25;34.23;37.21
66871;DHT22;53780;44.998;9.926;2023-06-26T11:20:30;34.17;37.38
66871;DHT22;53780;44.998;9.926;2023-06-26T11:23:35;33.98;37.73
66871;DHT22;53780;44.998;9.926;2023-06-26T11:26:44;33.72;37.84
66871;DHT22;53780;44.998;9.926;2023-06-26T11:29:48;33.58;37.51
66871;DHT22;53780;44.998;9.926;2023-06-26T11:32:53;33.46;38.68
66871;DHT22;53780;44.998;9.926;2023-06-26T11:36:08;33.33;38.52
66871;DHT22;53780;44.998;9.926;2023-06-26T11:39:12;33.19;38.85
66871;DHT22;53780;44.998;9.926;2023-06-26T11:42:17;33.07;39.14
66871;DHT22;53780;44.998;9.926;2023-06-26T11:45:21;32.92;39.80
66871;DHT22;53780;44.998;9.926;2023-06-26T11:48:25;32.83;39.33
66871;DHT22;53780;44.998;9.926;2023-06-26T11:51:29;32.76;40.10
66871;DHT22;53780;44.998;9.926;2023-06-26T11:54:33;32.64;40.30
66871;DHT22;53780;44.998;9.926;2023-06-26T11:57:37;32.52;40.79
66871;DHT22;53780;44.998;9.926;2023-06-26T12:00:42;32.43;40.27
66871;DHT22;53780;44.998;9.926;2023-06-26T12:03:47;32.36;40.87
66871;DHT22;53780;44.998;9.926;2023-06-26T12:06:52;32.31;39.91
66871;DHT22;53780;44.998;9.926;2023-06-26T12:10:01;32.22;41.32
66871;DHT22;53780;44.998;9.926;2023-06-26T12:13:05;32.12;41.49
66871;DHT22;53780;44.998;9.926;2023-06-26T12:16:10;32.09;41.88
66871;DHT22;53780;44.998;9.926;2023-06-26T12:19:14;31.98;41.94
66871;DHT22;53780;44.998;9.926;2023-06-26T12:22:18;31.92;42.24
66871;DHT22;53780;44.998;9.926;2023-06-26T12:25:23;31.91;41.26
66871;DHT22;53780;44.998;9.926;2023-06-26T12:28:27;31.91;41.55
66871;DHT22;53780;44.998;9.926;2023-06-26T12:31:43;31.80;42.16
66871;DHT22;53780;44.998;9.926;2023-06-26T12:34:51;31.73;42.49
66871;DHT22;53780;44.998;9.926;2023-06-26T12:37:55;31.73;40.91
66871;DHT22;53780;44.998;9.926;2023-06-26T12:40:58;31.68;40.97
66871;DHT22;53780;44.998;9.926;2023-06-26T12:44:02;31.58;42.28
66871;DHT22;53780;44.998;9.926;2023-06-26T12:47:06;31.56;42.54
66871;DHT22;53780;44.998;9.926;2023-06-26T12:50:12;31.56;42.73
66871;DHT22;53780;44.998;9.926;2023-06-26T12:53:16;31.50;42.90
66871;DHT22;53780;44.998;9.926;2023-06-26T12:56:20;31.39;43.21
66871;DHT22;53780;44.998;9.926;2023-06-26T12:59:24;31.33;43.50
66871;DHT22;53780;44.998;9.926;2023-06-26T13:02:28;31.22;43.45
66871;DHT22;53780;44.998;9.926;2023-06-26T13:05:32;31.20;43.65
66871;DHT22;53780;44.998;9.926;2023-06-26T13:08:36;31.22;43.88
66871;DHT22;53780;44.998;9.926;2023-06-26T13:11:40;31.16;43.78
66871;DHT22;53780;44.998;9.926;2023-06-26T13:14:44;31.16;42.11
66871;DHT22;53780;44.998;9.926;2023-06-26T13:17:48;31.13;43.07
66871;DHT22;53780;44.998;9.926;2023-06-26T13:20:52;31.26;40.18
66871;DHT22;53780;44.998;9.926;2023-06-26T13:23:57;31.20;42.13
66871;DHT22;53780;44.998;9.926;2023-06-26T13:27:03;31.13;41.98
66871;DHT22;53780;44.998;9.926;2023-06-26T13:30:07;31.12;41.92
66871;DHT22;53780;44.998;9.926;2023-06-26T13:33:11;31.06;43.39
66871;DHT22;53780;44.998;9.926;2023-06-26T13:36:15;30.95;43.69
66871;DHT22;53780;44.998;9.926;2023-06-26T13:39:19;30.89;43.72
66871;DHT22;53780;44.998;9.926;2023-06-26T13:42:23;30.86;44.03
66871;DHT22;53780;44.998;9.926;2023-06-26T13:45:27;30.82;43.96
66871;DHT22;53780;44.998;9.926;2023-06-26T13:48:31;30.76;44.46
66871;DHT22;53780;44.998;9.926;2023-06-26T13:51:35;30.74;43.79
66871;DHT22;53780;44.998;9.926;2023-06-26T13:54:39;30.71;43.98
66871;DHT22;53780;44.998;9.926;2023-06-26T13:57:43;30.65;44.52
66871;DHT22;53780;44.998;9.926;2023-06-26T14:00:47;30.65;43.05
66871;DHT22;53780;44.998;9.926;2023-06-26T14:03:51;30.68;42.36
66871;DHT22;53780;44.998;9.926;2023-06-26T14:06:54;30.68;44.17
66871;DHT22;53780;44.998;9.926;2023-06-26T14:09:58;30.63;44.56
66871;DHT22;53780;44.998;9.926;2023-06-26T14:13:05;30.57;43.93
66871;DHT22;53780;44.998;9.926;2023-06-26T14:16:09;30.57;43.85
66871;DHT22;53780;44.998;9.926;2023-06-26T14:19:13;30.55;44.14
66871;DHT22;53780;44.998;9.926;2023-06-26T14:22:19;30.63;41.63
66871;DHT22;53780;44.998;9.926;2023-06-26T14:25:25;30.65;42.08
66871;DHT22;53780;44.998;9.926;2023-06-26T14:28:31;30.69;41.65
66871;DHT22;53780;44.998;9.926;2023-06-26T14:31:35;30.71;41.92
66871;DHT22;53780;44.998;9.926;2023-06-26T14:34:39;30.68;42.66
66871;DHT22;53780;44.998;9.926;2023-06-26T14:37:43;30.63;43.82
66871;DHT22;53780;44.998;9.926;2023-06-26T14:40:47;30.54;43.91
66871;DHT22;53780;44.998;9.926;2023-06-26T14:43:51;30.47;42.68
66871;DHT22;53780;44.998;9.926;2023-06-26T14:46:56;30.48;43.28
66871;DHT22;53780;44.998;9.926;2023-06-26T14:50:00;30.48;43.65
66871;DHT22;53780;44.998;9.926;2023-06-26T14:53:04;30.53;41.80
66871;DHT22;53780;44.998;9.926;2023-06-26T14:56:08;30.48;43.72
66871;DHT22;53780;44.998;9.926;2023-06-26T14:59:12;30.47;43.47
66871;DHT22;53780;44.998;9.926;2023-06-26T15:02:16;30.48;43.58
66871;DHT22;53780;44.998;9.926;2023-06-26T15:05:20;30.40;44.63
66871;DHT22;53780;44.998;9.926;2023-06-26T15:08:25;30.44;42.06
66871;DHT22;53780;44.998;9.926;2023-06-26T15:11:29;30.43;44.14
66871;DHT22;53780;44.998;9.926;2023-06-26T15:14:33;30.44;43.93
66871;DHT22;53780;44.998;9.926;2023-06-26T15:17:39;30.43;42.92
66871;DHT22;53780;44.998;9.926;2023-06-26T15:20:43;30.40;42.71
66871;DHT22;53780;44.998;9.926;2023-06-26T15:23:47;30.36;43.81
66871;DHT22;53780;44.998;9.926;2023-06-26T15:26:51;30.34;44.00
66871;DHT22;53780;44.998;9.926;2023-06-26T15:29:55;30.34;44.46
66871;DHT22;53780;44.998;9.926;2023-06-26T15:32:59;30.45;42.44
66871;DHT22;53780;44.998;9.926;2023-06-26T15:36:04;30.43;43.57
66871;DHT22;53780;44.998;9.926;2023-06-26T15:39:09;30.33;44.17
66871;DHT22;53780;44.998;9.926;2023-06-26T15:42:13;30.43;42.80
66871;DHT22;53780;44.998;9.926;2023-06-26T15:45:17;30.43;43.66
66871;DHT22;53780;44.998;9.926;2023-06-26T15:48:29;30.41;43.52
66871;DHT22;53780;44.998;9.926;2023-06-26T15:51:33;30.37;44.24
66871;DHT22;53780;44.998;9.926;2023-06-26T15:54:40;30.34;42.84
66871;DHT22;53780;44.998;9.926;2023-06-26T15:57:44;30.30;44.56
66871;DHT22;53780;44.998;9.926;2023-06-26T16:00:47;30.27;43.74
66871;DHT22;53780;44.998;9.926;2023-06-26T16:03:51;30.28;44.41
66871;DHT22;53780;44.998;9.926;2023-06-26T16:06:55;30.30;43.69
66871;DHT22;53780;44.998;9.926;2023-06-26T16:10:00;30.27;43.93
66871;DHT22;53780;44.998;9.926;2023-06-26T16:13:04;30.38;42.42
66871;DHT22;53780;44.998;9.926;2023-06-26T16:16:08;30.36;43.90
66871;DHT22;53780;44.998;9.926;2023-06-26T16:19:11;30.31;43.96
66871;DHT22;53780;44.998;9.926;2023-06-26T16:22:15;30.34;43.68
66871;DHT22;53780;44.998;9.926;2023-06-26T16:25:19;30.26;44.94
66871;DHT22;53780;44.998;9.926;2023-06-26T16:28:23;30.21;43.87
66871;DHT22;53780;44.998;9.926;2023-06-26T16:31:27;30.28;43.62
66871;DHT22;53780;44.998;9.926;2023-06-26T16:34:31;30.31;44.00
66871;DHT22;53780;44.998;9.926;2023-06-26T16:37:35;30.27;44.50
66871;DHT22;53780;44.998;9.926;2023-06-26T16:40:38;30.34;43.48
66871;DHT22;53780;44.998;9.926;2023-06-26T16:43:42;30.43;43.42
66871;DHT22;53780;44.998;9.926;2023-06-26T16:46:46;30.38;43.39
66871;DHT22;53780;44.998;9.926;2023-06-26T16:49:50;30.40;44.04
66871;DHT22;53780;44.998;9.926;2023-06-26T16:52:54;30.36;43.80
66871;DHT22;53780;44.998;9.926;2023-06-26T16:55:58;30.36;44.41
66871;DHT22;53780;44.998;9.926;2023-06-26T16:59:02;30.31;43.96
66871;DHT22;53780;44.998;9.926;2023-06-26T17:02:05;30.36;43.27
66871;DHT22;53780;44.998;9.926;2023-06-26T17:05:09;30.31;43.72
66871;DHT22;53780;44.998;9.926;2023-06-26T17:08:14;30.31;43.94
66871;DHT22;53780;44.998;9.926;2023-06-26T17:11:18;30.30;43.59
66871;DHT22;53780;44.998;9.926;2023-06-26T17:14:22;30.27;44.39
66871;DHT22;53780;44.998;9.926;2023-06-26T17:17:26;30.31;43.01
66871;DHT22;53780;44.998;9.926;2023-06-26T17:20:30;30.30;43.85
66871;DHT22;53780;44.998;9.926;2023-06-26T17:23:35;30.20;44.99
66871;DHT22;53780;44.998;9.926;2023-06-26T17:26:42;30.14;45.26
66871;DHT22;53780;44.998;9.926;2023-06-26T17:29:49;30.12;44.37
66871;DHT22;53780;44.998;9.926;2023-06-26T17:32:53;30.12;45.37
66871;DHT22;53780;44.998;9.926;2023-06-26T17:35:57;30.12;44.70
66871;DHT22;53780;44.998;9.926;2023-06-26T17:39:02;30.17;44.40
66871;DHT22;53780;44.998;9.926;2023-06-26T17:42:06;30.17;43.59
66871;DHT22;53780;44.998;9.926;2023-06-26T17:45:11;30.14;44.85
66871;DHT22;53780;44.998;9.926;2023-06-26T17:48:15;30.09;45.17
66871;DHT22;53780;44.998;9.926;2023-06-26T17:51:19;30.03;45.26
66871;DHT22;53780;44.998;9.926;2023-06-26T17:54:22;29.98;45.37
66871;DHT22;53780;44.998;9.926;2023-06-26T17:57:26;29.99;45.59
66871;DHT22;53780;44.998;9.926;2023-06-26T18:00:30;29.98;45.82
66871;DHT22;53780;44.998;9.926;2023-06-26T18:03:34;29.90;45.65
66871;DHT22;53780;44.998;9.926;2023-06-26T18:06:38;29.89;46.05
66871;DHT22;53780;44.998;9.926;2023-06-26T18:09:41;29.85;46.33
66871;DHT22;53780;44.998;9.926;2023-06-26T18:12:45;29.82;46.51
66871;DHT22;53780;44.998;9.926;2023-06-26T18:15:55;29.76;46.80
66871;DHT22;53780;44.998;9.926;2023-06-26T18:18:59;29.69;46.97
66871;DHT22;53780;44.998;9.926;2023-06-26T18:22:03;29.68;47.06
66871;DHT22;53780;44.998;9.926;2023-06-26T18:25:06;29.68;46.97
66871;DHT22;53780;44.998;9.926;2023-06-26T18:28:10;29.68;46.81
66871;DHT22;53780;44.998;9.926;2023-06-26T18:31:16;29.68;46.89
66871;DHT22;53780;44.998;9.926;2023-06-26T18:34:19;29.66;46.95
66871;DHT22;53780;44.998;9.926;2023-06-26T18:37:24;29.64;46.91
66871;DHT22;53780;44.998;9.926;2023-06-26T18:40:28;29.59;46.74
66871;DHT22;53780;44.998;9.926;2023-06-26T18:43:32;29.59;46.35
66871;DHT22;53780;44.998;9.926;2023-06-26T18:46:35;29.57;47.23
66871;DHT22;53780;44.998;9.926;2023-06-26T18:49:41;29.48;47.21
66871;DHT22;53780;44.998;9.926;2023-06-26T18:52:45;29.44;47.47
66871;DHT22;53780;44.998;9.926;2023-06-26T18:55:49;29.39;47.67
66871;DHT22;53780;44.998;9.926;2023-06-26T18:58:52;29.37;47.80
66871;DHT22;53780;44.998;9.926;2023-06-26T19:01:57;29.31;47.66
66871;DHT22;53780;44.998;9.926;2023-06-26T19:05:01;29.30;47.90
66871;DHT22;53780;44.998;9.926;2023-06-26T19:08:04;29.26;47.60
66871;DHT22;53780;44.998;9.926;2023-06-26T19:11:09;29.21;47.54
66871;DHT22;53780;44.998;9.926;2023-06-26T19:14:13;29.20;47.88
66871;DHT22;53780;44.998;9.926;2023-06-26T19:17:17;29.16;48.08
66871;DHT22;53780;44.998;9.926;2023-06-26T19:20:21;29.14;47.98
66871;DHT22;53780;44.998;9.926;2023-06-26T19:23:25;29.11;48.39
66871;DHT22;53780;44.998;9.926;2023-06-26T19:26:29;29.08;48.54
66871;DHT22;53780;44.998;9.926;2023-06-26T19:29:32;29.04;48.65
66871;DHT22;53780;44.998;9.926;2023-06-26T19:32:36;28.99;47.94
66871;DHT22;53780;44.998;9.926;2023-06-26T19:35:41;28.99;48.45